createdAt,value
2018-07-24T00:01:31.066Z,4.47
2018-07-24T00:03:59.374Z,6.23
2018-07-24T00:06:27.715Z,7.63
2018-07-24T00:08:56.034Z,6.97
2018-07-24T00:11:24.370Z,4.83
2018-07-24T00:13:52.720Z,8.90
2018-07-24T00:16:21.072Z,13.90
2018-07-24T00:18:49.451Z,8.67
2018-07-24T00:21:17.785Z,9.57
2018-07-24T00:23:46.149Z,8.97
2018-07-24T00:26:14.520Z,11.47
2018-07-24T00:28:42.846Z,9.43
2018-07-24T00:31:11.174Z,10.53
2018-07-24T00:33:39.501Z,11.93
2018-07-24T00:36:08.047Z,11.03
2018-07-24T00:38:36.374Z,14.50
2018-07-24T00:41:04.711Z,11.67
2018-07-24T00:43:33.049Z,11.23
2018-07-24T00:46:01.394Z,8.30
2018-07-24T00:48:29.794Z,7.73
2018-07-24T00:50:58.313Z,8.17
2018-07-24T00:54:55.799Z,8.67
2018-07-24T00:57:24.149Z,7.27
2018-07-24T00:59:52.498Z,9.37
2018-07-24T01:02:20.830Z,8.43
2018-07-24T01:04:49.154Z,9.93
2018-07-24T01:07:17.491Z,5.87
2018-07-24T01:09:45.840Z,6.83
2018-07-24T01:12:14.190Z,7.87
2018-07-24T01:14:42.523Z,7.63
2018-07-24T01:17:10.848Z,7.23
2018-07-24T01:19:39.224Z,9.37
2018-07-24T01:22:07.568Z,7.00
2018-07-24T01:24:37.754Z,7.00
2018-07-24T01:27:06.102Z,8.80
2018-07-24T01:29:34.435Z,5.83
2018-07-24T01:32:02.761Z,6.90
2018-07-24T01:34:31.136Z,6.10
2018-07-24T01:36:59.492Z,6.13
2018-07-24T01:39:27.866Z,7.47
2018-07-24T01:41:56.219Z,6.83
2018-07-24T01:44:24.580Z,7.60
2018-07-24T01:46:52.919Z,8.13
2018-07-24T01:49:21.241Z,8.33
2018-07-24T01:51:49.595Z,7.37
2018-07-24T01:54:17.935Z,7.73
2018-07-24T01:56:46.304Z,7.60
2018-07-24T01:59:14.658Z,9.33
2018-07-24T02:01:43.653Z,12.53
2018-07-24T02:04:12.260Z,7.27
2018-07-24T02:06:40.637Z,8.83
2018-07-24T02:09:10.149Z,6.97
2018-07-24T02:11:38.521Z,6.47
2018-07-24T02:14:06.901Z,8.80
2018-07-24T02:16:35.359Z,7.30
2018-07-24T02:19:03.733Z,7.80
2018-07-24T02:21:32.084Z,6.20
2018-07-24T02:24:00.429Z,7.97
2018-07-24T02:26:28.773Z,6.57
2018-07-24T02:28:57.119Z,7.33
2018-07-24T02:31:25.454Z,9.27
2018-07-24T02:33:53.803Z,9.33
2018-07-24T02:36:22.217Z,7.13
2018-07-24T02:38:50.566Z,6.30
2018-07-24T02:41:18.916Z,5.70
2018-07-24T02:43:47.292Z,6.23
2018-07-24T02:46:15.662Z,7.97
2018-07-24T02:48:44.112Z,10.70
2018-07-24T02:51:12.508Z,7.63
2018-07-24T02:53:40.907Z,6.30
2018-07-24T02:56:09.249Z,7.20
2018-07-24T02:58:37.594Z,7.07
2018-07-24T03:01:05.910Z,5.87
2018-07-24T03:03:34.278Z,6.63
2018-07-24T03:06:02.634Z,8.97
2018-07-24T03:08:30.980Z,6.93
2018-07-24T03:10:59.316Z,7.07
2018-07-24T03:13:27.669Z,7.03
2018-07-24T03:15:56.005Z,7.93
2018-07-24T03:18:24.335Z,5.90
2018-07-24T03:20:52.667Z,7.53
2018-07-24T03:23:21.009Z,7.30
2018-07-24T03:25:49.374Z,11.33
2018-07-24T03:28:18.069Z,7.20
2018-07-24T03:30:46.396Z,10.30
2018-07-24T03:33:14.725Z,6.63
2018-07-24T03:35:43.053Z,6.07
2018-07-24T03:38:11.387Z,7.40
2018-07-24T03:40:39.710Z,7.33
2018-07-24T03:43:08.044Z,7.00
2018-07-24T03:45:36.388Z,6.60
2018-07-24T03:48:04.767Z,6.67
2018-07-24T03:50:33.121Z,8.90
2018-07-24T03:53:01.453Z,7.57
2018-07-24T03:55:29.777Z,6.43
2018-07-24T03:57:58.133Z,7.87
2018-07-24T04:00:26.519Z,9.17
2018-07-24T04:02:54.852Z,7.57
2018-07-24T04:05:23.177Z,7.33
2018-07-24T04:07:52.234Z,8.63
2018-07-24T04:10:21.754Z,7.50
2018-07-24T04:12:50.225Z,8.83
2018-07-24T04:15:18.549Z,8.00
2018-07-24T04:17:46.875Z,7.23
2018-07-24T04:20:15.194Z,8.07
2018-07-24T04:22:43.553Z,6.97
2018-07-24T04:25:11.875Z,7.87
2018-07-24T04:27:40.239Z,9.57
2018-07-24T04:30:08.592Z,9.37
2018-07-24T04:32:36.948Z,9.87
2018-07-24T04:35:05.301Z,10.33
2018-07-24T04:37:33.756Z,11.63
2018-07-24T04:40:02.167Z,9.77
2018-07-24T04:42:30.467Z,13.00
2018-07-24T04:44:58.818Z,10.47
2018-07-24T04:47:27.156Z,10.40
2018-07-24T04:49:55.549Z,8.57
2018-07-24T04:52:23.897Z,11.53
2018-07-24T04:54:52.245Z,8.90
2018-07-24T04:57:20.568Z,9.00
2018-07-24T04:59:48.916Z,8.20
2018-07-24T05:02:17.260Z,12.93
2018-07-24T05:04:45.607Z,10.07
2018-07-24T05:07:13.951Z,11.70
2018-07-24T05:09:42.360Z,11.23
2018-07-24T05:12:10.641Z,14.87
2018-07-24T05:14:38.962Z,11.27
2018-07-24T05:17:07.271Z,13.70
2018-07-24T05:19:35.603Z,13.00
2018-07-24T05:22:03.963Z,11.10
2018-07-24T05:24:32.312Z,11.30
2018-07-24T05:27:00.634Z,9.83
2018-07-24T05:29:28.972Z,11.63
2018-07-24T05:31:57.327Z,12.00
2018-07-24T05:34:25.657Z,12.23
2018-07-24T05:36:53.995Z,11.80
2018-07-24T05:39:22.366Z,11.57
2018-07-24T05:41:50.689Z,13.43
2018-07-24T05:44:19.028Z,10.87
2018-07-24T05:46:47.360Z,9.63
2018-07-24T05:49:15.716Z,6.73
2018-07-24T05:51:44.056Z,14.73
2018-07-24T05:54:12.381Z,6.77
2018-07-24T05:56:40.723Z,11.53
2018-07-24T05:59:09.066Z,12.50
2018-07-24T06:01:37.412Z,11.53
2018-07-24T06:04:05.887Z,6.27
2018-07-24T06:06:34.220Z,6.30
2018-07-24T06:09:02.609Z,9.20
2018-07-24T06:11:30.950Z,6.57
2018-07-24T06:13:59.308Z,8.80
2018-07-24T06:16:27.654Z,6.13
2018-07-24T06:18:56.071Z,7.83
2018-07-24T06:21:24.421Z,5.87
2018-07-24T06:23:52.742Z,6.50
2018-07-24T06:26:21.091Z,6.67
2018-07-24T06:28:49.440Z,5.77
2018-07-24T06:31:17.793Z,6.70
2018-07-24T06:33:46.107Z,7.97
2018-07-24T06:36:14.473Z,7.30
2018-07-24T06:38:42.832Z,4.53
2018-07-24T06:41:11.165Z,4.67
2018-07-24T06:43:39.497Z,4.80
2018-07-24T06:46:07.849Z,5.75
2018-07-24T06:48:36.280Z,3.55
2018-07-24T06:51:04.731Z,3.35
2018-07-24T06:53:33.055Z,3.60
2018-07-24T06:56:01.393Z,4.75
2018-07-24T06:58:29.758Z,4.12
2018-07-24T07:00:58.089Z,5.25
2018-07-24T07:03:26.488Z,4.78
2018-07-24T07:05:54.796Z,8.40
2018-07-24T07:08:23.140Z,5.28
2018-07-24T07:10:51.593Z,3.10
2018-07-24T07:13:19.966Z,3.47
2018-07-24T07:15:48.311Z,4.72
2018-07-24T07:18:16.653Z,6.42
2018-07-24T07:20:45.017Z,4.87
2018-07-24T07:23:13.433Z,3.95
2018-07-24T07:25:41.793Z,4.87
2018-07-24T07:28:10.164Z,5.33
2018-07-24T07:30:38.536Z,4.97
2018-07-24T07:33:06.896Z,4.22
2018-07-24T07:35:35.241Z,4.10
2018-07-24T07:38:03.618Z,8.60
2018-07-24T07:40:31.935Z,6.28
2018-07-24T07:43:00.288Z,4.67
2018-07-24T07:45:28.630Z,7.95
2018-07-24T07:47:56.998Z,6.50
2018-07-24T07:50:25.340Z,7.12
2018-07-24T07:52:53.652Z,7.70
2018-07-24T07:55:21.970Z,9.00
2018-07-24T07:57:50.308Z,10.45
2018-07-24T08:00:18.781Z,10.23
2018-07-24T08:02:47.108Z,12.23
2018-07-24T08:05:15.518Z,12.47
2018-07-24T08:07:43.860Z,13.55
2018-07-24T08:10:12.240Z,14.35
2018-07-24T08:12:40.580Z,13.08
2018-07-24T08:15:08.922Z,14.65
2018-07-24T08:17:37.273Z,15.10
2018-07-24T08:20:05.665Z,14.95
2018-07-24T08:22:34.069Z,15.78
2018-07-24T08:25:02.397Z,17.80
2018-07-24T08:27:30.736Z,18.32
2018-07-24T08:29:59.103Z,15.45
2018-07-24T08:32:27.516Z,14.25
2018-07-24T08:34:55.861Z,13.32
2018-07-24T08:37:24.208Z,11.95
2018-07-24T08:39:52.540Z,13.88
2018-07-24T08:42:20.891Z,12.75
2018-07-24T08:44:49.252Z,9.18
2018-07-24T08:47:17.600Z,8.10
2018-07-24T08:49:45.948Z,6.62
2018-07-24T08:52:14.301Z,6.80
2018-07-24T08:54:42.853Z,5.75
2018-07-24T08:57:11.087Z,5.53
2018-07-24T08:59:39.412Z,6.08
2018-07-24T09:02:07.837Z,6.45
2018-07-24T09:04:36.192Z,6.28
2018-07-24T09:07:04.534Z,7.35
2018-07-24T09:09:32.851Z,7.40
2018-07-24T09:12:01.206Z,8.93
2018-07-24T09:14:29.530Z,12.13
2018-07-24T09:16:57.869Z,11.53
2018-07-24T09:19:26.212Z,12.98
2018-07-24T09:21:54.551Z,11.08
2018-07-24T09:24:22.901Z,11.25
2018-07-24T09:26:51.658Z,8.03
2018-07-24T09:29:19.699Z,5.62
2018-07-24T09:31:48.073Z,4.28
2018-07-24T09:34:16.470Z,4.92
2018-07-24T09:36:44.814Z,3.65
2018-07-24T09:39:13.124Z,6.97
2018-07-24T09:41:41.449Z,3.30
2018-07-24T09:44:09.764Z,5.85
2018-07-24T09:46:38.102Z,4.37
2018-07-24T09:49:06.486Z,5.67
2018-07-24T09:51:34.812Z,4.08
2018-07-24T09:54:03.143Z,3.55
2018-07-24T09:56:31.515Z,4.60
2018-07-24T09:58:59.804Z,4.08
2018-07-24T10:01:33.965Z,4.75
2018-07-24T10:04:03.336Z,4.53
2018-07-24T10:06:32.735Z,4.42
2018-07-24T10:09:01.150Z,7.30
2018-07-24T10:11:29.515Z,5.67
2018-07-24T10:13:57.959Z,3.92
2018-07-24T10:16:26.338Z,3.50
2018-07-24T10:18:54.802Z,14.95
2018-07-24T10:21:23.133Z,4.25
2018-07-24T10:23:51.590Z,3.20
2018-07-24T10:26:19.955Z,3.17
2018-07-24T10:28:48.329Z,3.62
2018-07-24T10:31:16.698Z,2.05
2018-07-24T10:33:45.088Z,2.05
2018-07-24T10:36:13.473Z,3.87
2018-07-24T10:38:41.789Z,4.37
2018-07-24T10:41:10.128Z,3.62
2018-07-24T10:45:07.720Z,2.10
2018-07-24T10:47:36.121Z,4.87
2018-07-24T10:50:04.552Z,2.27
2018-07-24T10:52:32.907Z,3.37
2018-07-24T10:55:01.285Z,3.22
2018-07-24T10:57:29.635Z,3.17
2018-07-24T10:59:57.984Z,3.55
2018-07-24T11:02:26.340Z,5.55
2018-07-24T11:04:54.693Z,4.20
2018-07-24T11:07:23.089Z,3.40
2018-07-24T11:09:51.439Z,3.45
2018-07-24T11:12:19.788Z,4.40
2018-07-24T11:14:48.139Z,3.47
2018-07-24T11:17:16.560Z,2.62
2018-07-24T11:19:44.930Z,4.80
2018-07-24T11:22:13.408Z,5.92
2018-07-24T11:24:41.700Z,4.28
2018-07-24T11:27:10.109Z,3.67
2018-07-24T11:29:38.547Z,3.45
2018-07-24T11:32:06.991Z,8.63
2018-07-24T11:34:35.360Z,5.58
2018-07-24T11:37:03.715Z,4.80
2018-07-24T11:39:32.073Z,4.40
2018-07-24T11:42:00.495Z,3.77
2018-07-24T11:44:28.865Z,5.90
2018-07-24T11:46:57.272Z,3.97
2018-07-24T11:49:25.665Z,4.83
2018-07-24T11:51:54.141Z,7.07
2018-07-24T11:54:23.302Z,3.07
2018-07-24T11:56:51.658Z,4.23
2018-07-24T11:59:20.104Z,3.40
2018-07-24T12:01:48.468Z,5.60
2018-07-24T12:04:16.813Z,4.20
2018-07-24T12:06:45.213Z,4.17
2018-07-24T12:09:14.043Z,3.67
2018-07-24T12:11:42.983Z,7.03
2018-07-24T12:14:11.596Z,7.10
2018-07-24T12:16:39.972Z,5.20
2018-07-24T12:19:08.372Z,3.50
2018-07-24T12:21:36.741Z,6.07
2018-07-24T12:24:05.064Z,6.07
2018-07-24T12:26:33.426Z,6.30
2018-07-24T12:29:01.788Z,8.67
2018-07-24T12:31:30.145Z,5.03
2018-07-24T12:33:58.462Z,3.70
2018-07-24T12:36:26.902Z,5.20
2018-07-24T12:38:55.277Z,5.97
2018-07-24T12:41:23.631Z,5.17
2018-07-24T12:43:51.995Z,4.83
2018-07-24T12:46:20.352Z,7.13
2018-07-24T12:48:48.701Z,3.80
2018-07-24T12:51:17.102Z,5.00
2018-07-24T12:53:45.776Z,7.97
2018-07-24T12:56:14.124Z,4.63
2018-07-24T12:58:42.971Z,2.90
2018-07-24T13:01:11.331Z,3.73
2018-07-24T13:03:39.652Z,3.20
2018-07-24T13:06:08.112Z,5.73
2018-07-24T13:08:36.397Z,3.10
2018-07-24T13:11:04.812Z,4.07
2018-07-24T13:13:33.180Z,5.87
2018-07-24T13:16:01.532Z,5.90
2018-07-24T13:18:29.897Z,2.87
2018-07-24T13:20:58.256Z,5.73
2018-07-24T13:23:26.634Z,3.50
2018-07-24T13:25:54.995Z,5.00
2018-07-24T13:28:23.338Z,3.33
2018-07-24T13:30:51.687Z,3.87
2018-07-24T13:33:20.053Z,2.60
2018-07-24T13:35:48.396Z,3.03
2018-07-24T13:38:16.756Z,5.73
2018-07-24T13:40:45.101Z,6.00
2018-07-24T13:43:13.430Z,3.63
2018-07-24T13:45:42.164Z,3.77
2018-07-24T13:48:10.520Z,2.33
2018-07-24T13:50:38.965Z,2.50
2018-07-24T13:53:07.305Z,3.37
2018-07-24T13:55:35.670Z,7.90
2018-07-24T13:58:04.060Z,2.27
2018-07-24T14:00:32.405Z,6.57
2018-07-24T14:03:00.735Z,3.93
2018-07-24T14:05:29.129Z,3.43
2018-07-24T14:07:57.463Z,4.37
2018-07-24T14:10:25.819Z,5.40
2018-07-24T14:12:54.200Z,2.20
2018-07-24T14:15:22.544Z,4.80
2018-07-24T14:17:50.917Z,5.97
2018-07-24T14:20:19.267Z,5.80
2018-07-24T14:22:47.638Z,3.17
2018-07-24T14:25:16.026Z,2.40
2018-07-24T14:27:44.371Z,4.77
2018-07-24T14:30:12.753Z,4.63
2018-07-24T14:32:41.193Z,2.40
2018-07-24T14:35:09.571Z,4.03
2018-07-24T14:37:37.943Z,4.90
2018-07-24T14:40:06.372Z,4.50
2018-07-24T14:42:34.749Z,3.87
2018-07-24T14:45:03.153Z,6.03
2018-07-24T14:47:31.844Z,4.87
2018-07-24T14:50:00.197Z,2.50
2018-07-24T14:52:28.535Z,3.00
2018-07-24T14:54:56.884Z,3.80
2018-07-24T14:57:25.227Z,4.43
2018-07-24T14:59:53.573Z,3.63
2018-07-24T15:02:21.952Z,4.83
2018-07-24T15:04:50.438Z,4.40
2018-07-24T15:07:18.984Z,2.60
2018-07-24T15:09:47.364Z,3.93
2018-07-24T15:12:15.772Z,2.77
2018-07-24T15:14:44.155Z,5.27
2018-07-24T15:17:12.615Z,3.43
2018-07-24T15:19:40.916Z,4.17
2018-07-24T15:22:09.356Z,7.57
2018-07-24T15:24:37.707Z,3.47
2018-07-24T15:27:06.143Z,6.83
2018-07-24T15:29:34.549Z,4.60
2018-07-24T15:32:02.928Z,4.33
2018-07-24T15:34:31.411Z,3.97
2018-07-24T15:36:59.742Z,2.63
2018-07-24T15:39:28.065Z,3.03
2018-07-24T15:41:56.430Z,2.57
2018-07-24T15:44:24.783Z,4.07
2018-07-24T15:46:53.261Z,5.67
2018-07-24T15:49:21.564Z,2.57
2018-07-24T15:51:49.934Z,5.17
2018-07-24T15:54:18.320Z,4.73
2018-07-24T15:56:46.682Z,3.30
2018-07-24T15:59:15.044Z,4.10
2018-07-24T16:01:43.424Z,2.43
2018-07-24T16:04:11.788Z,4.37
2018-07-24T16:06:40.180Z,3.00
2018-07-24T16:09:10.713Z,5.67
2018-07-24T16:11:39.108Z,4.47
2018-07-24T16:14:07.507Z,3.97
2018-07-24T16:16:35.882Z,3.60
2018-07-24T16:19:04.427Z,9.53
2018-07-24T16:21:32.780Z,5.57
2018-07-24T16:24:01.125Z,2.90
2018-07-24T16:26:29.675Z,3.17
2018-07-24T16:28:58.058Z,2.90
2018-07-24T16:31:26.398Z,3.20
2018-07-24T16:33:54.742Z,2.73
2018-07-24T16:36:23.113Z,2.70
2018-07-24T16:38:51.464Z,3.33
2018-07-24T16:41:19.812Z,2.53
2018-07-24T16:43:48.192Z,2.80
2018-07-24T16:46:16.640Z,5.37
2018-07-24T16:48:44.993Z,2.90
2018-07-24T16:51:13.328Z,3.57
2018-07-24T16:53:41.674Z,6.13
2018-07-24T16:56:10.111Z,5.63
2018-07-24T16:58:38.450Z,3.13
2018-07-24T17:01:06.810Z,5.17
2018-07-24T17:03:35.177Z,4.33
2018-07-24T17:06:03.629Z,5.47
2018-07-24T17:08:31.984Z,3.63
2018-07-24T17:11:00.327Z,6.17
2018-07-24T17:13:28.777Z,5.63
2018-07-24T17:15:57.136Z,3.33
2018-07-24T17:18:25.499Z,4.23
2018-07-24T17:20:53.862Z,2.83
2018-07-24T17:23:22.429Z,3.23
2018-07-24T17:25:50.812Z,3.63
2018-07-24T17:28:19.153Z,4.50
2018-07-24T17:30:47.500Z,3.80
2018-07-24T17:33:15.873Z,4.43
2018-07-24T17:35:44.313Z,4.37
2018-07-24T17:38:12.582Z,4.47
2018-07-24T17:40:40.994Z,4.43
2018-07-24T17:43:09.372Z,6.27
2018-07-24T17:45:37.821Z,4.20
2018-07-24T17:48:06.786Z,6.40
2018-07-24T17:50:35.495Z,5.93
2018-07-24T17:53:03.875Z,5.70
2018-07-24T17:55:32.280Z,6.93
2018-07-24T17:58:00.671Z,5.17
2018-07-24T18:00:29.134Z,5.60
2018-07-24T18:02:57.433Z,5.33
2018-07-24T18:05:25.791Z,6.83
2018-07-24T18:07:54.165Z,5.23
2018-07-24T18:10:22.524Z,6.10
2018-07-24T18:12:50.890Z,3.50
2018-07-24T18:15:19.347Z,7.80
2018-07-24T18:17:47.747Z,4.63
2018-07-24T18:20:16.190Z,4.53
2018-07-24T18:22:44.553Z,5.60
2018-07-24T18:25:12.901Z,3.57
2018-07-24T18:27:41.315Z,3.73
2018-07-24T18:30:09.715Z,3.30
2018-07-24T18:32:38.064Z,2.97
2018-07-24T18:35:06.518Z,4.47
2018-07-24T18:37:34.858Z,3.93
2018-07-24T18:40:03.238Z,4.37
2018-07-24T18:42:31.579Z,3.73
2018-07-24T18:44:59.977Z,4.43
2018-07-24T18:47:28.342Z,3.80
2018-07-24T18:49:56.710Z,4.47
2018-07-24T18:52:25.128Z,5.77
2018-07-24T18:54:53.492Z,3.30
2018-07-24T18:57:21.849Z,3.07
2018-07-24T18:59:50.194Z,5.07
2018-07-24T19:02:18.544Z,5.63
2018-07-24T19:04:46.908Z,4.03
2018-07-24T19:07:15.289Z,4.47
2018-07-24T19:09:43.662Z,4.67
2018-07-24T19:12:12.028Z,4.60
2018-07-24T19:14:40.387Z,6.93
2018-07-24T19:17:08.819Z,5.00
2018-07-24T19:19:37.147Z,7.13
2018-07-24T19:22:05.505Z,5.97
2018-07-24T19:24:33.840Z,5.17
2018-07-24T19:27:02.230Z,3.47
2018-07-24T19:29:30.578Z,6.43
2018-07-24T19:31:58.952Z,5.80
2018-07-24T19:34:27.376Z,5.80
2018-07-24T19:36:55.799Z,4.43
2018-07-24T19:39:24.177Z,5.20
2018-07-24T19:41:52.534Z,5.93
2018-07-24T19:44:20.868Z,7.00
2018-07-24T19:46:49.232Z,6.60
2018-07-24T19:49:17.677Z,8.77
2018-07-24T19:51:46.045Z,10.43
2018-07-24T19:54:14.377Z,4.60
2018-07-24T19:56:42.755Z,9.33
2018-07-24T19:59:11.106Z,4.27
2018-07-24T20:01:39.486Z,7.87
2018-07-24T20:04:07.850Z,5.60
2018-07-24T20:06:36.181Z,9.37
2018-07-24T20:09:08.243Z,4.70
2018-07-24T20:11:36.669Z,8.63
2018-07-24T20:14:05.154Z,6.77
2018-07-24T20:16:33.588Z,9.70
2018-07-24T20:19:01.921Z,5.73
2018-07-24T20:21:30.282Z,8.47
2018-07-24T20:23:58.777Z,4.00
2018-07-24T20:26:27.141Z,6.57
2018-07-24T20:28:55.485Z,5.40
2018-07-24T20:31:23.853Z,7.03
2018-07-24T20:33:52.501Z,4.83
2018-07-24T20:36:20.888Z,6.77
2018-07-24T20:38:49.288Z,6.57
2018-07-24T20:41:17.822Z,5.47
2018-07-24T20:43:46.415Z,5.17
2018-07-24T20:46:14.779Z,4.27
2018-07-24T20:48:43.115Z,5.83
2018-07-24T20:51:11.494Z,7.67
2018-07-24T20:53:39.829Z,5.53
2018-07-24T20:56:08.230Z,6.57
2018-07-24T20:58:36.627Z,8.27
2018-07-24T21:01:05.007Z,7.87
2018-07-24T21:03:33.433Z,7.30
2018-07-24T21:06:01.798Z,5.87
2018-07-24T21:08:30.871Z,5.47
2018-07-24T21:10:59.249Z,4.67
2018-07-24T21:13:27.598Z,5.47
2018-07-24T21:15:55.932Z,6.70
2018-07-24T21:18:24.282Z,6.20
2018-07-24T21:20:52.647Z,8.40
2018-07-24T21:23:20.991Z,7.67
2018-07-24T21:25:49.341Z,10.60
2018-07-24T21:28:17.696Z,9.93
2018-07-24T21:30:46.032Z,9.47
2018-07-24T21:33:14.353Z,5.77
2018-07-24T21:35:42.702Z,7.27
2018-07-24T21:38:11.037Z,4.40
2018-07-24T21:40:39.370Z,6.80
2018-07-24T21:43:07.715Z,7.77
2018-07-24T21:45:36.053Z,7.47
2018-07-24T21:48:04.401Z,7.00
2018-07-24T21:50:32.728Z,5.90
2018-07-24T21:53:01.055Z,5.67
2018-07-24T21:55:29.381Z,5.50
2018-07-24T21:57:57.706Z,6.43
2018-07-24T22:00:26.095Z,8.57
2018-07-24T22:02:54.410Z,7.73
2018-07-24T22:05:22.751Z,5.10
2018-07-24T22:07:51.078Z,5.07
2018-07-24T22:10:23.121Z,6.10
2018-07-24T22:12:52.461Z,7.57
2018-07-24T22:15:23.189Z,4.50
2018-07-24T22:17:51.872Z,4.67
2018-07-24T22:20:20.450Z,10.27
2018-07-24T22:22:49.156Z,6.63
2018-07-24T22:25:17.636Z,4.43
2018-07-24T22:27:46.004Z,8.50
2018-07-24T22:30:14.371Z,5.37
2018-07-24T22:32:42.705Z,4.70
2018-07-24T22:35:12.382Z,5.17
2018-07-24T22:37:40.747Z,10.13
2018-07-24T22:40:10.779Z,9.47
2018-07-24T22:42:39.093Z,7.50
2018-07-24T22:45:07.891Z,7.17
2018-07-24T22:47:36.297Z,6.90
2018-07-24T22:50:04.985Z,5.40
2018-07-24T22:52:33.302Z,8.33
2018-07-24T22:55:02.426Z,7.10
2018-07-24T22:57:30.747Z,4.10
2018-07-24T22:59:59.083Z,9.53
2018-07-24T23:02:27.402Z,7.33
2018-07-24T23:04:55.727Z,8.73
2018-07-24T23:07:24.047Z,7.87
2018-07-24T23:09:52.395Z,5.60
2018-07-24T23:12:20.747Z,6.23
2018-07-24T23:14:49.082Z,5.87
2018-07-24T23:17:17.429Z,6.47
2018-07-24T23:19:45.763Z,7.57
2018-07-24T23:22:14.100Z,5.93
2018-07-24T23:24:42.433Z,5.73
2018-07-24T23:27:11.121Z,6.93
2018-07-24T23:29:39.574Z,8.90
2018-07-24T23:32:07.936Z,6.97
2018-07-24T23:34:36.239Z,10.20
2018-07-24T23:37:04.568Z,5.23
2018-07-24T23:39:32.915Z,8.07
2018-07-24T23:42:01.279Z,6.93
2018-07-24T23:44:29.615Z,5.33
2018-07-24T23:46:57.949Z,7.57
2018-07-24T23:49:26.315Z,6.90
2018-07-24T23:51:54.671Z,6.43
2018-07-24T23:54:22.988Z,4.70
2018-07-24T23:56:51.324Z,5.67
2018-07-24T23:59:19.645Z,4.40
